Time;durP1;ratioP1;P1;durP2;ratioP2;P2;SDS_P1;SDS_P2;PMS_P1;PMS_P2;Temp;Humidity;BMP_temperature;BMP_pressure;BME280_temperature;BME280_humidity;BME280_pressure;Samples;Min_cycle;Max_cycle;Signal;HPM_P1;HPM_P2
2021/10/15 00:00:53;;;;;;;7.72;4.30;;;;;;;7.89;75.92;98887.19;4790017;29;20046;-86
2021/10/15 00:03:19;;;;;;;10.02;4.13;;;;;;;7.94;75.71;98894.44;4790821;29;20049;-85
2021/10/15 00:05:46;;;;;;;;;;;;;;;7.98;75.15;98906.34;4791147;29;20527;-84
2021/10/15 00:08:12;;;;;;;6.37;3.70;;;;;;;7.72;75.21;98870.72;4767270;29;20023;-83
2021/10/15 00:10:38;;;;;;;8.18;3.38;;;;;;;7.85;75.41;98905.25;4806535;29;20054;-82
2021/10/15 00:13:04;;;;;;;10.10;4.13;;;;;;;7.85;75.14;98918.84;4806661;29;20054;-86
2021/10/15 00:15:31;;;;;;;7.13;3.65;;;;;;;7.69;75.75;98907.47;4790531;29;20042;-86
2021/10/15 00:17:57;;;;;;;6.28;3.60;;;;;;;7.81;75.80;98923.28;4806241;29;20638;-86
2021/10/15 00:20:23;;;;;;;5.78;3.35;;;;;;;7.79;75.62;98920.06;4806296;29;20055;-86
2021/10/15 00:22:51;;;;;;;8.80;3.58;;;;;;;7.80;76.12;98927.13;4789590;29;20522;-82
2021/10/15 00:25:17;;;;;;;6.75;3.72;;;;;;;7.63;76.02;98910.63;4805876;29;20055;-87
2021/10/15 00:27:43;;;;;;;9.13;3.60;;;;;;;7.69;75.57;98944.78;4806177;29;20046;-83
2021/10/15 00:30:10;;;;;;;8.02;3.30;;;;;;;7.59;74.88;98948.50;4805636;29;20057;-87
2021/10/15 00:32:36;;;;;;;5.80;3.15;;;;;;;7.54;75.14;98935.78;4789710;29;20046;-85
2021/10/15 00:35:02;;;;;;;8.73;3.08;;;;;;;7.21;74.91;98905.16;4805594;29;20043;-84
2021/10/15 00:37:31;;;;;;;7.45;2.70;;;;;;;7.48;73.90;98937.00;4789352;29;20134;-87
2021/10/15 00:39:57;;;;;;;6.25;2.78;;;;;;;7.46;74.63;98943.84;4806259;29;20046;-81
2021/10/15 00:42:23;;;;;;;4.63;2.83;;;;;;;7.26;74.87;98934.97;4760463;29;20045;-82
2021/10/15 00:44:51;;;;;;;7.00;3.30;;;;;;;7.43;75.33;98971.66;4805933;29;20051;-86
2021/10/15 00:47:20;;;;;;;5.13;2.80;;;;;;;7.42;74.51;98973.56;4760496;29;20497;-85
2021/10/15 00:49:46;;;;;;;5.88;3.28;;;;;;;7.38;75.27;98974.44;4806124;29;20057;-85
2021/10/15 00:52:12;;;;;;;5.17;3.00;;;;;;;7.22;75.00;98963.06;4805647;29;20446;-82
2021/10/15 00:54:41;;;;;;;5.97;3.50;;;;;;;7.34;74.00;98976.97;4775235;29;20534;-83
2021/10/15 00:57:12;;;;;;;8.80;3.20;;;;;;;7.20;74.53;98970.72;4806084;29;20158;-84
2021/10/15 00:59:39;;;;;;;5.65;3.15;;;;;;;7.28;74.70;98981.72;4790185;29;20700;-84
2021/10/15 01:02:07;;;;;;;4.72;2.92;;;;;;;7.21;74.57;98992.13;4789441;29;20053;-86
2021/10/15 01:04:34;;;;;;;;;;;;;;;7.16;75.22;98994.97;4805977;29;20043;-83
2021/10/15 01:07:00;;;;;;;5.93;2.08;;;;;;;7.08;74.00;99001.06;4759473;29;20070;-82
2021/10/15 01:09:27;;;;;;;6.50;2.47;;;;;;;7.04;74.51;98997.34;4805324;29;20092;-83
2021/10/15 01:11:55;;;;;;;5.63;2.90;;;;;;;6.82;74.98;98971.63;4788989;29;20046;-85
2021/10/15 01:14:23;;;;;;;4.85;2.85;;;;;;;6.80;74.72;98976.53;4774202;29;20065;-85
2021/10/15 01:16:49;;;;;;;8.35;3.75;;;;;;;7.03;75.26;99012.03;4788611;29;20046;-82
2021/10/15 01:19:16;;;;;;;;;;;;;;;6.94;75.06;99008.38;4805572;29;20074;-88
2021/10/15 01:21:42;;;;;;;5.50;3.00;;;;;;;6.93;75.21;99014.91;4805299;29;19965;-86
2021/10/15 01:24:10;;;;;;;5.10;2.83;;;;;;;6.68;75.25;99000.63;4805194;29;20078;-83
2021/10/15 01:26:36;;;;;;;4.68;2.63;;;;;;;6.52;74.46;98985.66;4772999;30;20062;-84
2021/10/15 01:29:05;;;;;;;5.75;3.00;;;;;;;6.74;75.08;99021.16;4804388;29;20632;-83
2021/10/15 01:31:31;;;;;;;7.38;3.00;;;;;;;6.60;76.15;99014.88;4759900;29;20054;-83
2021/10/15 01:33:58;;;;;;;5.25;2.80;;;;;;;6.46;75.78;99014.00;4805129;29;20054;-87
2021/10/15 01:36:26;;;;;;;4.85;2.60;;;;;;;6.75;75.19;99036.34;4804913;29;20498;-84
2021/10/15 01:38:52;;;;;;;4.70;2.47;;;;;;;6.65;74.74;99039.22;4760711;29;20050;-89
2021/10/15 01:41:19;;;;;;;4.57;2.60;;;;;;;6.72;75.38;99045.13;4805373;29;20666;-84
2021/10/15 01:43:46;;;;;;;6.18;2.85;;;;;;;6.75;75.59;99051.84;4805358;29;20042;-87
2021/10/15 01:46:12;;;;;;;4.45;2.60;;;;;;;6.71;75.89;99061.69;4788562;29;20444;-84
2021/10/15 01:48:39;;;;;;;5.88;2.80;;;;;;;6.53;75.29;99047.03;4804735;29;20049;-83
2021/10/15 01:51:05;;;;;;;4.40;2.67;;;;;;;6.64;75.68;99070.22;4768821;29;20046;-85
2021/10/15 01:53:33;;;;;;;4.00;2.20;;;;;;;6.57;75.16;99064.34;4804953;29;20382;-88
2021/10/15 01:55:59;;;;;;;5.20;2.33;;;;;;;6.62;75.30;99058.81;4804533;29;20179;-84
2021/10/15 01:58:25;;;;;;;6.53;2.67;;;;;;;6.55;76.00;99061.09;4759249;29;20142;-85
2021/10/15 02:00:51;;;;;;;5.15;2.53;;;;;;;6.69;76.13;99075.59;4804257;29;20047;-85
2021/10/15 02:03:17;;;;;;;5.90;3.22;;;;;;;6.65;75.45;99071.00;4810384;29;20057;-84
2021/10/15 02:05:44;;;;;;;5.18;2.80;;;;;;;6.43;76.17;99049.88;4794410;29;20046;-83
2021/10/15 02:08:12;;;;;;;10.30;2.72;;;;;;;6.49;76.40;99070.41;4811403;29;20047;-86
2021/10/15 02:10:38;;;;;;;8.10;2.70;;;;;;;6.50;75.68;99072.84;4794540;29;20055;-85
2021/10/15 02:13:04;;;;;;;3.67;2.33;;;;;;;6.56;75.91;99084.47;4780377;29;20051;-88
2021/10/15 02:15:32;;;;;;;5.25;2.25;;;;;;;6.49;76.10;99101.09;4810873;29;20047;-83
2021/10/15 02:17:58;;;;;;;5.53;2.42;;;;;;;6.50;76.48;99093.75;4810759;29;20050;-83
2021/10/15 02:20:24;;;;;;;4.53;2.60;;;;;;;6.48;76.44;99080.47;4810385;29;20042;-85
2021/10/15 02:22:52;;;;;;;4.10;2.60;;;;;;;6.31;76.48;99066.56;4810550;29;20043;-85
2021/10/15 02:25:19;;;;;;;4.38;2.55;;;;;;;6.42;76.12;99078.09;4811164;29;20081;-84
2021/10/15 02:27:49;;;;;;;8.60;2.70;;;;;;;6.39;76.17;99087.66;4811062;29;20055;-84
2021/10/15 02:30:17;;;;;;;6.50;2.53;;;;;;;6.35;75.18;99097.47;4794610;29;20142;-82
2021/10/15 02:32:43;;;;;;;;;;;;;;;6.50;76.40;99119.00;4794989;29;20544;-87
2021/10/15 02:35:11;;;;;;;4.30;2.28;;;;;;;6.54;76.52;99108.38;4810472;29;19925;-83
2021/10/15 02:37:37;;;;;;;;;;;;;;;6.49;76.16;99119.28;4810941;29;20058;-84
2021/10/15 02:40:04;;;;;;;6.10;2.90;;;;;;;6.46;76.21;99119.88;4810736;29;19925;-84
2021/10/15 02:42:31;;;;;;;4.68;2.45;;;;;;;6.50;76.30;99113.56;4810418;29;20038;-84
2021/10/15 02:44:57;;;;;;;10.77;2.40;;;;;;;6.53;75.78;99128.50;4779752;29;20053;-84
2021/10/15 02:47:24;;;;;;;6.87;2.93;;;;;;;6.50;76.09;99120.91;4794276;29;20053;-87
2021/10/15 02:49:50;;;;;;;4.95;2.63;;;;;;;6.49;75.05;99119.28;4811396;29;20058;-86
2021/10/15 02:52:17;;;;;;;;;;;;;;;6.59;75.36;99143.63;4795186;29;20042;-87
2021/10/15 02:54:43;;;;;;;13.82;3.65;;;;;;;6.21;75.10;99094.66;4811227;29;19973;-84
2021/10/15 02:57:11;;;;;;;6.07;3.25;;;;;;;6.37;75.97;99127.06;4794128;29;20050;-87
2021/10/15 02:59:37;;;;;;;4.60;3.00;;;;;;;6.37;75.39;99140.63;4810257;29;20533;-86
2021/10/15 03:02:04;;;;;;;7.15;3.22;;;;;;;6.10;75.35;99104.00;4794119;29;20042;-83
2021/10/15 03:04:30;;;;;;;8.95;3.88;;;;;;;6.46;75.19;99147.84;4810017;29;20505;-84
2021/10/15 03:06:57;;;;;;;7.40;3.45;;;;;;;6.44;74.99;99147.31;4810463;29;20058;-86
2021/10/15 03:09:23;;;;;;;5.57;3.22;;;;;;;6.58;75.68;99163.72;4810509;29;20182;-83
2021/10/15 03:11:50;;;;;;;6.80;3.73;;;;;;;6.60;74.94;99166.97;4810302;29;20055;-87
2021/10/15 03:14:16;;;;;;;5.82;3.80;;;;;;;6.43;76.26;99156.56;4807481;29;20406;-83
2021/10/15 03:16:43;;;;;;;6.28;3.13;;;;;;;6.29;75.73;99150.19;4765320;29;20050;-82
2021/10/15 03:19:09;;;;;;;18.17;4.63;;;;;;;6.45;76.26;99178.00;4776337;29;20505;-86
2021/10/15 03:21:37;;;;;;;7.15;3.83;;;;;;;6.48;75.35;99183.66;4807100;29;20050;-82
2021/10/15 03:24:04;;;;;;;8.07;4.60;;;;;;;6.51;76.06;99188.50;4773728;29;20059;-83
2021/10/15 03:26:33;;;;;;;8.30;4.82;;;;;;;6.46;75.73;99182.34;4807508;29;20045;-83
2021/10/15 03:29:00;;;;;;;12.77;5.45;;;;;;;6.49;76.17;99185.28;4806249;29;20433;-83
2021/10/15 03:31:26;;;;;;;;;;;;;;;6.62;75.30;99191.09;4791375;29;20047;-84
2021/10/15 03:33:52;;;;;;;7.55;4.60;;;;;;;6.61;75.42;99193.00;4805200;29;19932;-88
2021/10/15 03:36:19;;;;;;;11.70;5.50;;;;;;;6.47;74.78;99189.38;4806998;29;20039;-82
2021/10/15 03:38:45;;;;;;;15.20;6.93;;;;;;;6.51;75.71;99198.56;4805589;29;20050;-88
2021/10/15 03:41:13;;;;;;;12.13;6.43;;;;;;;6.23;75.28;99168.47;4806712;29;20074;-83
2021/10/15 03:43:39;;;;;;;14.73;6.57;;;;;;;6.41;75.48;99201.38;4806657;29;20179;-82
2021/10/15 03:46:06;;;;;;;12.52;7.03;;;;;;;6.51;76.22;99214.84;4792139;29;20042;-82
2021/10/15 03:48:32;;;;;;;13.57;6.70;;;;;;;6.48;75.15;99213.53;4776037;30;20047;-87
2021/10/15 03:50:59;;;;;;;17.83;8.57;;;;;;;6.52;75.46;99214.59;4804696;29;20088;-83
2021/10/15 03:53:25;;;;;;;15.27;7.95;;;;;;;6.30;75.67;99196.06;4773253;30;20615;-89
2021/10/15 03:55:51;;;;;;;16.90;7.75;;;;;;;6.50;76.05;99227.63;4794047;29;20043;-81
2021/10/15 03:58:17;;;;;;;16.92;8.25;;;;;;;6.56;76.29;99234.63;4806073;29;20656;-83
2021/10/15 04:00:43;;;;;;;10.95;6.28;;;;;;;6.50;75.42;99233.06;4805655;29;20043;-79
2021/10/15 04:03:10;;;;;;;16.50;8.60;;;;;;;6.54;75.73;99236.00;4805912;29;20054;-86
2021/10/15 04:05:37;;;;;;;17.30;8.35;;;;;;;6.44;75.47;99220.63;4806129;29;20050;-87
2021/10/15 04:08:04;;;;;;;17.10;8.65;;;;;;;6.56;75.51;99250.13;4805650;29;20497;-83
2021/10/15 04:10:31;;;;;;;18.03;9.07;;;;;;;6.56;76.14;99247.41;4805673;29;20055;-82
2021/10/15 04:12:57;;;;;;;18.63;8.65;;;;;;;6.41;75.99;99212.25;4806030;29;20133;-82
2021/10/15 04:15:25;;;;;;;17.75;8.02;;;;;;;6.46;75.79;99228.50;4806138;29;20107;-83
2021/10/15 04:17:51;;;;;;;21.52;9.38;;;;;;;6.29;75.59;99213.47;4806169;29;20043;-80
2021/10/15 04:20:17;;;;;;;15.70;8.45;;;;;;;6.36;75.96;99229.41;4805407;29;20620;-79
2021/10/15 04:22:44;;;;;;;17.88;9.30;;;;;;;6.53;75.94;99262.34;4805374;29;20046;-81
2021/10/15 04:25:10;;;;;;;20.63;9.60;;;;;;;6.52;76.08;99268.06;4758655;29;20039;-81
2021/10/15 04:27:37;;;;;;;18.10;8.82;;;;;;;6.55;75.74;99272.91;4805648;29;20046;-82
2021/10/15 04:30:04;;;;;;;20.45;8.57;;;;;;;6.50;74.51;99281.94;4806199;29;20039;-79
2021/10/15 04:32:30;;;;;;;;;;;;;;;6.48;75.57;99272.47;4792592;29;20055;-84
2021/10/15 04:34:57;;;;;;;16.00;7.60;;;;;;;6.37;75.71;99274.47;4787603;29;19932;-86
2021/10/15 04:37:23;;;;;;;19.98;8.23;;;;;;;6.47;75.93;99287.94;4803021;29;20130;-89
2021/10/15 04:39:51;;;;;;;20.70;8.77;;;;;;;6.42;75.58;99273.59;4794954;29;20541;-82
2021/10/15 04:42:17;;;;;;;21.65;9.73;;;;;;;6.46;76.01;99274.66;4773591;29;20054;-74
2021/10/15 04:44:43;;;;;;;18.15;8.73;;;;;;;6.65;77.11;99297.25;4803770;29;20043;-70
2021/10/15 04:47:09;;;;;;;21.67;9.30;;;;;;;6.71;75.19;99289.88;4804130;29;20413;-75
2021/10/15 04:49:35;;;;;;;21.08;8.10;;;;;;;6.78;74.16;99307.44;4804712;29;20051;-78
2021/10/15 04:52:02;;;;;;;15.85;7.90;;;;;;;6.74;75.40;99302.88;4804782;29;20054;-74
2021/10/15 04:54:29;;;;;;;17.52;7.90;;;;;;;6.68;75.47;99304.03;4805854;29;20082;-79
2021/10/15 04:56:54;;;;;;;17.02;8.75;;;;;;;6.72;76.15;99318.66;4803949;29;20074;-80
2021/10/15 04:59:20;;;;;;;24.38;10.77;;;;;;;6.71;76.18;99328.72;4806227;29;20058;-79
2021/10/15 05:01:46;;;;;;;16.70;8.00;;;;;;;6.58;75.77;99321.22;4804748;29;20051;-92
2021/10/15 05:04:15;;;;;;;18.05;8.75;;;;;;;6.52;75.91;99315.06;4804941;29;20046;-78
2021/10/15 05:06:42;;;;;;;15.90;7.65;;;;;;;6.64;75.70;99332.88;4803512;29;20054;-84
2021/10/15 05:11:44;;;;;;;21.50;9.13;;;;;;;6.62;75.66;99341.28;4803886;29;20058;-75
2021/10/15 05:14:10;;;;;;;16.95;8.90;;;;;;;6.53;75.54;99313.16;4803443;29;20054;-84
2021/10/15 05:16:37;;;;;;;17.10;8.48;;;;;;;6.65;75.48;99340.72;4803626;29;20034;-75
2021/10/15 05:19:05;;;;;;;21.23;7.82;;;;;;;6.67;75.61;99349.41;4801780;29;20035;-89
2021/10/15 05:21:32;;;;;;;16.80;7.72;;;;;;;6.64;75.94;99349.16;4803876;29;20057;-82
2021/10/15 05:23:58;;;;;;;19.67;8.00;;;;;;;6.70;75.81;99348.03;4786793;29;20057;-87
2021/10/15 05:26:24;;;;;;;17.65;8.45;;;;;;;6.72;75.88;99356.69;4803073;29;20047;-76
2021/10/15 05:28:50;;;;;;;19.17;9.32;;;;;;;6.66;76.46;99346.97;4802893;29;20474;-87
2021/10/15 05:31:16;;;;;;;18.23;9.10;;;;;;;6.80;75.99;99362.31;4802592;29;20061;-84
2021/10/15 05:33:43;;;;;;;17.08;8.70;;;;;;;6.80;75.59;99364.22;4786483;29;20043;-81
2021/10/15 05:36:09;;;;;;;18.92;8.80;;;;;;;6.86;75.67;99363.09;4801892;29;20539;-84
2021/10/15 05:38:35;;;;;;;17.70;9.00;;;;;;;6.82;75.42;99371.00;4784834;29;20998;-89
2021/10/15 05:41:01;;;;;;;19.45;8.13;;;;;;;6.76;75.33;99374.84;4784391;30;20055;-75
2021/10/15 05:43:27;;;;;;;16.35;8.32;;;;;;;6.78;75.56;99369.94;4783992;30;20445;-76
2021/10/15 05:45:53;;;;;;;16.95;8.63;;;;;;;6.87;75.95;99377.47;4768380;30;20055;-87
2021/10/15 05:48:19;;;;;;;19.00;8.07;;;;;;;6.82;75.55;99365.56;4783906;30;20043;-89
2021/10/15 05:50:45;;;;;;;22.55;8.88;;;;;;;6.87;75.07;99374.75;4783351;30;20054;-90
2021/10/15 05:53:17;;;;;;;18.13;8.45;;;;;;;6.87;75.67;99385.63;4767916;30;20051;-89
2021/10/15 05:56:04;;;;;;;33.75;9.88;;;;;;;6.87;74.81;99381.00;4783048;30;20039;-76
2021/10/15 06:01:16;;;;;;;18.52;9.07;;;;;;;6.83;74.82;99374.53;4797832;29;20054;-90
2021/10/15 06:03:45;;;;;;;;;;;;;;;6.82;75.09;99395.47;4793060;29;20043;-76
2021/10/15 06:14:27;;;;;;;17.90;7.43;;;;;;;6.79;74.57;99403.38;4785885;29;20073;-79
2021/10/15 06:16:55;;;;;;;15.02;7.70;;;;;;;6.76;74.62;99390.34;4783943;29;20047;-90
2021/10/15 06:19:25;;;;;;;16.67;8.07;;;;;;;6.88;74.63;99406.25;4782975;29;20040;-89
2021/10/15 06:21:52;;;;;;;17.52;7.70;;;;;;;6.88;74.20;99404.34;4782083;30;20126;-86
2021/10/15 06:24:18;;;;;;;;;;;;;;;6.97;73.69;99409.97;4780055;30;20551;-78
2021/10/15 06:26:45;;;;;;;15.18;7.50;;;;;;;6.96;73.44;99428.19;4780831;30;19925;-77
2021/10/15 06:29:12;;;;;;;11.77;6.45;;;;;;;6.76;73.78;99404.75;4780065;30;20080;-78
2021/10/15 06:31:40;;;;;;;14.50;7.60;;;;;;;7.04;72.68;99432.19;4780673;30;20220;-83
2021/10/15 06:34:07;;;;;;;11.50;6.53;;;;;;;7.06;73.20;99432.72;4779335;30;20521;-79
2021/10/15 06:36:32;;;;;;;16.48;7.43;;;;;;;7.14;72.92;99429.38;4779712;30;20039;-89
2021/10/15 06:38:59;;;;;;;15.45;6.78;;;;;;;7.29;73.63;99431.94;4779474;30;20058;-88
2021/10/15 06:41:25;;;;;;;13.95;6.60;;;;;;;7.24;71.64;99423.81;4794715;29;20249;-79
2021/10/15 06:43:53;;;;;;;15.93;6.88;;;;;;;7.36;71.98;99438.97;4797620;29;20411;-87
2021/10/15 06:46:20;;;;;;;15.40;6.45;;;;;;;7.47;71.37;99441.25;4796171;29;20541;-89
2021/10/15 06:48:46;;;;;;;15.88;6.32;;;;;;;7.55;71.79;99445.28;4804919;29;20107;-78
2021/10/15 06:51:13;;;;;;;11.80;6.37;;;;;;;7.53;71.35;99450.19;4808571;29;20058;-89
2021/10/15 06:53:39;;;;;;;10.63;6.25;;;;;;;7.30;70.54;99425.41;4762422;29;20307;-89
2021/10/15 06:56:05;;;;;;;16.75;6.53;;;;;;;7.56;71.05;99454.25;4763260;29;20099;-88
2021/10/15 06:58:34;;;;;;;15.38;6.65;;;;;;;7.56;70.96;99449.59;4763706;29;20054;-88
2021/10/15 07:01:01;;;;;;;14.02;6.45;;;;;;;7.52;70.68;99452.09;4801520;29;20051;-89
2021/10/15 07:03:28;;;;;;;13.82;5.97;;;;;;;7.26;69.77;99412.69;4789211;30;20043;-86
2021/10/15 07:05:54;;;;;;;15.15;6.07;;;;;;;7.14;69.53;99398.66;4777008;29;20051;-90
2021/10/15 07:08:21;;;;;;;17.35;5.95;;;;;;;7.32;70.13;99422.41;4791954;29;20054;-91
2021/10/15 07:10:47;;;;;;;12.48;5.43;;;;;;;7.29;69.34;99418.34;4807953;29;20421;-85
2021/10/15 07:13:14;;;;;;;13.23;6.25;;;;;;;7.42;70.41;99438.63;4783379;29;20042;-91
2021/10/15 07:15:43;;;;;;;16.63;7.43;;;;;;;7.56;70.38;99455.03;4794385;29;20047;-91
2021/10/15 07:18:09;;;;;;;14.70;6.68;;;;;;;7.43;70.45;99420.38;4799977;29;20529;-90
2021/10/15 07:20:36;;;;;;;14.70;7.40;;;;;;;7.48;69.47;99428.47;4790301;30;20052;-88
2021/10/15 07:23:03;;;;;;;16.33;7.13;;;;;;;7.61;69.66;99471.28;4791620;29;20153;-91
2021/10/15 07:25:29;;;;;;;11.77;5.97;;;;;;;7.45;69.21;99445.34;4776868;29;20466;-90
2021/10/15 07:27:55;;;;;;;17.48;7.03;;;;;;;7.50;70.01;99448.03;4776329;29;20424;-86
2021/10/15 07:30:21;;;;;;;13.15;6.72;;;;;;;7.58;68.58;99460.19;4761283;29;20134;-85
2021/10/15 07:32:52;;;;;;;13.70;6.55;;;;;;;7.42;68.51;99443.25;4806678;29;20038;-88
2021/10/15 07:35:19;;;;;;;18.08;6.32;;;;;;;7.79;68.84;99486.06;4773105;30;20047;-86
2021/10/15 07:37:45;;;;;;;10.98;5.57;;;;;;;7.76;66.65;99465.69;4764488;29;20100;-85
2021/10/15 07:40:12;;;;;;;13.68;6.30;;;;;;;7.94;67.34;99485.88;4807032;29;20043;-85
2021/10/15 07:42:39;;;;;;;14.30;5.93;;;;;;;7.98;66.54;99481.50;4807242;29;20051;-85
2021/10/15 07:45:07;;;;;;;13.38;5.93;;;;;;;8.13;68.21;99485.09;4776803;29;20564;-85
2021/10/15 07:47:35;;;;;;;14.18;5.43;;;;;;;8.21;66.67;99503.50;4788382;30;20047;-88
2021/10/15 07:50:01;;;;;;;14.65;5.32;;;;;;;8.05;66.61;99461.25;4780015;30;20047;-85
2021/10/15 07:52:26;;;;;;;14.85;5.45;;;;;;;8.16;66.12;99479.06;4772718;30;20067;-89
2021/10/15 07:54:53;;;;;;;14.13;5.63;;;;;;;8.17;66.36;99477.97;4779640;29;20100;-90
2021/10/15 07:57:19;;;;;;;21.02;5.65;;;;;;;8.16;66.06;99458.09;4788484;30;20051;-85
2021/10/15 07:59:48;;;;;;;15.43;4.60;;;;;;;8.40;64.38;99506.28;4778113;29;20082;-87
2021/10/15 08:02:13;;;;;;;11.85;4.70;;;;;;;8.16;65.72;99479.88;4786556;30;20470;-85
2021/10/15 08:04:41;;;;;;;14.77;5.60;;;;;;;8.43;66.34;99509.22;4778647;30;20134;-85
2021/10/15 08:07:06;;;;;;;12.20;5.90;;;;;;;8.18;65.82;99466.00;4794692;29;20092;-83
2021/10/15 08:09:35;;;;;;;15.32;5.30;;;;;;;8.50;66.52;99518.94;4795938;29;20070;-85
2021/10/15 08:12:01;;;;;;;14.93;5.85;;;;;;;8.53;65.61;99512.91;4804050;29;20059;-85
2021/10/15 08:14:27;;;;;;;11.07;5.05;;;;;;;8.63;65.31;99535.38;4778883;29;20074;-86
2021/10/15 08:16:53;;;;;;;13.10;5.80;;;;;;;8.62;65.49;99511.97;4787372;29;20482;-85
2021/10/15 08:19:21;;;;;;;17.77;5.18;;;;;;;8.62;64.28;99514.69;4795160;29;20425;-86
2021/10/15 08:21:47;;;;;;;11.10;4.97;;;;;;;8.46;63.72;99484.13;4786477;29;20051;-85
2021/10/15 08:24:14;;;;;;;20.10;4.75;;;;;;;8.77;64.06;99524.53;4786260;29;20057;-85
2021/10/15 08:26:43;;;;;;;12.43;4.53;;;;;;;8.76;62.80;99533.81;4805343;29;20540;-89
2021/10/15 08:29:12;;;;;;;9.35;4.50;;;;;;;8.65;63.00;99505.13;4805272;29;20085;-89
2021/10/15 08:31:38;;;;;;;10.48;4.15;;;;;;;8.66;61.89;99514.91;4804778;29;20158;-86
2021/10/15 08:34:07;;;;;;;16.27;5.05;;;;;;;8.79;63.81;99529.72;4805478;29;20085;-85
2021/10/15 08:36:34;;;;;;;14.32;5.38;;;;;;;8.83;64.04;99530.72;4787188;30;20445;-86
2021/10/15 08:39:00;;;;;;;9.90;3.78;;;;;;;9.03;62.33;99552.22;4787819;30;20421;-88
2021/10/15 08:41:26;;;;;;;7.65;4.07;;;;;;;8.87;63.07;99527.13;4787597;30;20108;-89
2021/10/15 08:43:59;;;;;;;13.50;4.55;;;;;;;9.02;62.34;99534.25;4789114;30;20174;-89
2021/10/15 08:46:26;;;;;;;12.98;4.45;;;;;;;9.21;62.11;99553.31;4773378;30;20062;-92
2021/10/15 08:48:52;;;;;;;7.78;3.80;;;;;;;9.14;61.45;99539.25;4788537;30;20418;-86
2021/10/15 08:51:20;;;;;;;;;;;;;;;9.25;62.27;99554.34;4789586;30;20054;-90
2021/10/15 08:53:53;;;;;;;9.10;3.83;;;;;;;9.08;61.02;99533.06;4788377;29;20033;-85
2021/10/15 08:56:21;;;;;;;14.85;5.40;;;;;;;9.34;62.29;99568.91;4787633;30;20047;-78
2021/10/15 08:58:51;;;;;;;13.63;5.50;;;;;;;9.29;62.94;99557.28;4787660;29;20051;-76
2021/10/15 09:01:17;;;;;;;17.88;4.88;;;;;;;9.20;62.63;99565.31;4787437;30;20135;-76
2021/10/15 09:03:43;;;;;;;14.30;5.05;;;;;;;9.10;63.08;99563.56;4787404;29;20047;-79
2021/10/15 09:06:11;;;;;;;10.07;4.82;;;;;;;9.15;62.60;99562.69;4787567;29;20040;-77
2021/10/15 09:08:53;;;;;;;10.70;4.97;;;;;;;9.08;62.61;99563.06;4787577;29;20050;-76
2021/10/15 09:11:23;;;;;;;11.45;4.40;;;;;;;9.10;62.89;99571.75;4786849;29;20046;-81
2021/10/15 09:13:49;;;;;;;11.38;4.80;;;;;;;9.04;62.98;99572.13;4787348;29;20054;-76
2021/10/15 09:16:17;;;;;;;11.48;4.75;;;;;;;9.01;62.86;99565.38;4788098;29;20138;-84
2021/10/15 09:18:45;;;;;;;14.60;7.33;;;;;;;9.01;62.51;99570.81;4787670;29;20510;-79
2021/10/15 09:21:16;;;;;;;20.15;8.68;;;;;;;9.12;63.58;99577.72;4786715;30;20047;-78
2021/10/15 09:23:52;;;;;;;17.67;7.72;;;;;;;9.16;63.48;99572.47;4786733;29;20047;-78
2021/10/15 09:26:23;;;;;;;;;;;;;;;9.20;63.50;99573.50;4771886;30;20451;-78
2021/10/15 09:28:53;;;;;;;31.98;11.93;;;;;;;9.23;63.17;99583.00;4787292;30;19925;-78
2021/10/15 09:31:20;;;;;;;90.20;34.42;;;;;;;9.23;63.50;99581.09;4787286;30;20124;-79
2021/10/15 09:33:56;;;;;;;74.22;30.27;;;;;;;9.18;64.02;99573.81;4771313;30;20051;-79
2021/10/15 09:36:23;;;;;;;53.33;22.85;;;;;;;9.24;63.32;99573.72;4787247;30;20510;-78
2021/10/15 09:38:50;;;;;;;20.20;9.45;;;;;;;9.31;62.81;99585.06;4786837;30;20506;-78
2021/10/15 09:41:39;;;;;;;18.15;5.68;;;;;;;9.33;63.02;99580.91;4770743;30;20497;-78
2021/10/15 09:44:44;;;;;;;9.50;4.28;;;;;;;9.39;62.76;99582.47;4770821;30;20085;-78
2021/10/15 09:47:26;;;;;;;6.75;3.42;;;;;;;9.40;62.85;99588.72;4713785;30;20112;-77
2021/10/15 09:49:59;;;;;;;7.90;4.10;;;;;;;9.25;63.68;99559.78;4713383;30;20104;-77
2021/10/15 09:52:46;;;;;;;11.25;4.18;;;;;;;9.48;63.64;99598.16;4713597;30;20064;-77
2021/10/15 09:55:25;;;;;;;15.68;4.20;;;;;;;9.47;63.87;99577.44;4713686;30;20107;-77
2021/10/15 09:57:54;;;;;;;10.85;3.50;;;;;;;9.58;63.58;99595.25;4713993;30;20053;-80
2021/10/15 10:00:24;;;;;;;10.93;3.90;;;;;;;9.49;63.50;99597.03;4713768;30;20521;-82
2021/10/15 10:02:50;;;;;;;7.57;4.15;;;;;;;9.56;63.85;99601.00;4713890;30;20052;-84
2021/10/15 10:05:18;;;;;;;12.20;4.20;;;;;;;9.60;64.26;99610.22;4713842;30;20366;-76
2021/10/15 10:07:47;;;;;;;11.32;4.65;;;;;;;9.63;64.74;99603.34;4713711;30;20099;-78
2021/10/15 10:10:16;;;;;;;20.08;8.35;;;;;;;9.72;64.42;99614.41;4713968;30;20087;-82
2021/10/15 10:12:43;;;;;;;15.35;4.70;;;;;;;9.79;64.61;99603.88;4714139;30;20053;-78
2021/10/15 10:15:11;;;;;;;;;;;;;;;9.82;64.04;99606.03;4714970;30;20053;-82
2021/10/15 10:17:50;;;;;;;11.27;5.80;;;;;;;9.75;63.28;99608.34;4742182;30;19929;-77
2021/10/15 10:20:23;;;;;;;11.75;4.95;;;;;;;9.70;63.19;99602.97;4786723;30;20062;-76
2021/10/15 10:22:57;;;;;;;14.85;5.22;;;;;;;9.80;62.99;99602.78;4787108;29;20180;-77
2021/10/15 10:25:25;;;;;;;10.13;4.95;;;;;;;9.77;62.82;99595.22;4773910;30;20055;-79
2021/10/15 10:27:52;;;;;;;11.13;4.60;;;;;;;9.80;62.54;99600.88;4789981;30;20536;-79
2021/10/15 10:30:40;;;;;;;14.13;5.13;;;;;;;9.86;62.37;99612.50;4789785;30;20050;-77
2021/10/15 10:33:06;;;;;;;13.35;4.88;;;;;;;9.93;63.10;99610.19;4789926;30;20054;-78
2021/10/15 10:35:32;;;;;;;8.05;4.47;;;;;;;9.92;61.80;99608.56;4790102;30;20043;-77
2021/10/15 10:38:20;;;;;;;10.73;5.50;;;;;;;9.90;62.27;99613.53;4789890;30;20051;-77
2021/10/15 10:41:01;;;;;;;11.77;4.65;;;;;;;9.92;62.17;99610.50;4789624;30;20062;-77
2021/10/15 10:43:42;;;;;;;11.90;4.00;;;;;;;9.94;61.39;99609.09;4789943;30;20051;-77
2021/10/15 10:46:08;;;;;;;10.20;5.07;;;;;;;10.04;61.85;99605.34;4788467;30;20051;-78
2021/10/15 10:48:54;;;;;;;16.25;5.00;;;;;;;10.16;61.46;99593.91;4789548;30;20061;-77
2021/10/15 10:51:21;;;;;;;;;;;;;;;10.24;60.40;99595.97;4789858;30;20051;-83
2021/10/15 10:53:59;;;;;;;8.93;4.30;;;;;;;10.28;60.50;99603.25;4789812;30;19932;-86
2021/10/15 10:56:40;;;;;;;9.00;3.92;;;;;;;10.16;59.58;99602.91;4774175;30;20046;-81
2021/10/15 10:59:16;;;;;;;15.68;4.68;;;;;;;10.11;59.89;99603.03;4790521;30;20627;-82
2021/10/15 11:02:20;;;;;;;10.00;3.88;;;;;;;10.22;60.45;99600.91;4773954;30;20054;-82
2021/10/15 11:04:56;;;;;;;8.82;4.28;;;;;;;10.22;59.62;99592.72;4786918;30;20058;-84
2021/10/15 11:07:26;;;;;;;10.48;4.20;;;;;;;10.24;60.31;99599.50;4789848;30;20138;-86
2021/10/15 11:10:05;;;;;;;9.13;4.15;;;;;;;10.20;58.83;99590.28;4774306;30;20047;-91
2021/10/15 11:12:31;;;;;;;11.35;4.00;;;;;;;10.32;58.73;99603.47;4792124;30;20517;-90
2021/10/15 11:15:01;;;;;;;15.07;4.55;;;;;;;10.37;58.64;99599.84;4791105;30;20047;-75
2021/10/15 11:17:34;;;;;;;12.15;4.38;;;;;;;10.28;58.94;99605.19;4781755;30;20425;-76
2021/10/15 11:20:23;;;;;;;14.57;5.25;;;;;;;10.25;58.59;99603.84;4789165;30;20067;-75
2021/10/15 11:22:55;;;;;;;8.07;4.15;;;;;;;10.14;56.65;99607.09;4781070;30;20047;-75
2021/10/15 11:25:24;;;;;;;7.30;4.20;;;;;;;9.92;55.22;99611.28;4788119;30;20429;-77
2021/10/15 11:27:59;;;;;;;7.40;3.90;;;;;;;9.87;54.78;99603.22;4780493;30;20096;-77
2021/10/15 11:30:29;;;;;;;8.35;4.10;;;;;;;9.76;54.69;99607.22;4788057;30;20039;-76
2021/10/15 11:32:57;;;;;;;9.35;3.70;;;;;;;9.68;54.43;99608.72;4764134;30;20095;-77
2021/10/15 11:35:26;;;;;;;15.38;4.38;;;;;;;9.72;55.91;99608.94;4787318;29;20135;-91
2021/10/15 11:37:57;;;;;;;12.25;3.85;;;;;;;9.77;55.31;99612.41;4779353;30;20069;-76
2021/10/15 11:40:41;;;;;;;8.30;3.80;;;;;;;9.90;54.47;99616.25;4787025;30;20090;-78
2021/10/15 11:43:11;;;;;;;9.57;4.05;;;;;;;10.00;54.72;99616.06;4763910;30;20104;-89
2021/10/15 11:45:44;;;;;;;8.30;3.22;;;;;;;9.99;51.93;99616.38;4787010;30;20627;-81
2021/10/15 11:48:30;;;;;;;5.20;2.67;;;;;;;9.82;51.35;99600.56;4778756;29;20043;-82
2021/10/15 11:51:04;;;;;;;9.50;3.38;;;;;;;9.81;52.53;99605.22;4786257;29;20055;-83
2021/10/15 11:53:40;;;;;;;6.78;3.53;;;;;;;9.84;51.51;99620.19;4777714;30;20077;-81
2021/10/15 11:56:12;;;;;;;19.80;3.58;;;;;;;9.86;51.47;99612.50;4785744;30;20572;-81
2021/10/15 11:58:46;;;;;;;8.55;4.07;;;;;;;9.83;50.97;99624.00;4777586;30;20047;-83